Time;durP1;ratioP1;P1;durP2;ratioP2;P2;SDS_P1;SDS_P2;PMS_P1;PMS_P2;Temp;Humidity;BMP_temperature;BMP_pressure;BME280_temperature;BME280_humidity;BME280_pressure;Samples;Min_cycle;Max_cycle;Signal;HPM_P1;HPM_P2
2023/04/25 00:00:08;;;;;;;28.77;11.95;;;;;;;21.90;52.18;98623.25;4841286;29;20045;-61
2023/04/25 00:02:41;;;;;;;34.78;12.10;;;;;;;21.87;52.35;98632.66;4841206;29;20084;-63
2023/04/25 00:05:11;;;;;;;39.00;11.93;;;;;;;21.85;52.18;98631.31;4836148;29;20144;-59
2023/04/25 00:07:42;;;;;;;30.60;12.75;;;;;;;21.82;52.30;98631.84;4814450;29;20062;-61
2023/04/25 00:10:12;;;;;;;33.80;11.57;;;;;;;21.86;52.05;98641.03;4828766;29;20050;-62
2023/04/25 00:12:41;;;;;;;36.45;11.68;;;;;;;21.81;52.72;98639.16;4820729;29;20078;-62
2023/04/25 00:15:12;;;;;;;40.70;12.90;;;;;;;21.82;52.85;98650.72;4814039;29;20107;-60
2023/04/25 00:17:42;;;;;;;37.78;12.27;;;;;;;21.78;52.76;98655.84;4818657;29;20070;-62
2023/04/25 00:20:12;;;;;;;36.60;12.25;;;;;;;21.77;52.75;98661.50;4816641;29;20054;-61
2023/04/25 00:22:41;;;;;;;33.30;11.95;;;;;;;21.76;53.08;98662.59;4833956;29;20066;-60
2023/04/25 00:25:10;;;;;;;37.13;12.20;;;;;;;21.76;53.25;98665.28;4832268;29;20049;-62
2023/04/25 00:27:41;;;;;;;33.85;12.68;;;;;;;21.72;53.27;98658.81;4832812;29;20057;-61
2023/04/25 00:30:11;;;;;;;35.03;12.80;;;;;;;21.75;53.47;98661.78;4819623;29;20054;-63
2023/04/25 00:32:41;;;;;;;33.33;11.88;;;;;;;21.75;53.40;98669.84;4812142;29;20115;-61
2023/04/25 00:35:10;;;;;;;36.15;12.80;;;;;;;21.72;53.44;98674.97;4809802;29;20050;-61
2023/04/25 00:37:39;;;;;;;32.38;12.35;;;;;;;21.75;53.84;98663.66;4823674;29;20062;-61
2023/04/25 00:40:10;;;;;;;24.85;11.75;;;;;;;21.73;53.80;98668.50;4814646;29;20099;-61
2023/04/25 00:42:40;;;;;;;36.22;13.15;;;;;;;21.73;54.19;98671.22;4818205;29;20089;-63
2023/04/25 00:45:16;;;;;;;30.33;12.85;;;;;;;21.74;53.95;98673.63;4817973;29;20106;-63
2023/04/25 00:47:50;;;;;;;38.47;12.77;;;;;;;21.77;54.19;98675.81;4833000;29;20137;-61
2023/04/25 00:50:19;;;;;;;35.00;12.57;;;;;;;21.74;53.93;98680.91;4811169;29;20049;-62
2023/04/25 00:52:49;;;;;;;39.28;12.57;;;;;;;21.76;54.38;98679.56;4811903;29;20053;-63
2023/04/25 00:55:19;;;;;;;36.65;11.73;;;;;;;21.79;54.48;98687.13;4812047;29;20046;-61
2023/04/25 00:57:50;;;;;;;31.13;11.65;;;;;;;21.78;54.76;98685.50;4823537;29;20077;-62
2023/04/25 01:00:21;;;;;;;29.02;12.02;;;;;;;21.83;54.10;98698.19;4827262;29;20057;-60
2023/04/25 01:02:51;;;;;;;32.22;12.57;;;;;;;21.81;54.51;98692.25;4811421;29;20058;-63
2023/04/25 01:05:21;;;;;;;40.85;12.10;;;;;;;21.81;54.10;98690.38;4813737;29;20538;-62
2023/04/25 01:07:50;;;;;;;30.73;11.77;;;;;;;21.82;54.69;98686.59;4815125;29;20160;-61
2023/04/25 01:10:19;;;;;;;27.70;11.65;;;;;;;21.85;54.66;98702.25;4829272;29;20046;-60
2023/04/25 01:12:49;;;;;;;40.53;11.60;;;;;;;21.88;54.57;98698.19;4820044;29;20136;-61
2023/04/25 01:15:18;;;;;;;32.70;11.98;;;;;;;21.87;54.84;98700.09;4816631;29;20057;-63
2023/04/25 01:17:49;;;;;;;29.92;12.45;;;;;;;21.92;53.94;98702.81;4817775;29;20530;-65
2023/04/25 01:20:21;;;;;;;39.70;12.13;;;;;;;21.91;54.89;98706.56;4825715;29;20050;-61
2023/04/25 01:22:54;;;;;;;29.20;11.23;;;;;;;21.92;54.44;98699.28;4832528;29;20068;-62
2023/04/25 01:25:24;;;;;;;38.17;12.02;;;;;;;21.98;54.42;98706.34;4838748;29;20882;-62
2023/04/25 01:27:54;;;;;;;35.40;12.48;;;;;;;22.03;54.56;98700.16;4813963;29;20053;-62
2023/04/25 01:30:23;;;;;;;30.50;12.10;;;;;;;22.06;54.73;98716.63;4816758;29;20158;-62
2023/04/25 01:32:55;;;;;;;29.13;11.75;;;;;;;22.07;54.70;98715.56;4831297;29;20065;-63
2023/04/25 01:35:25;;;;;;;37.72;11.45;;;;;;;22.13;54.14;98721.78;4813435;29;20054;-61
2023/04/25 01:37:55;;;;;;;33.63;13.00;;;;;;;22.18;54.58;98724.47;4818485;29;20054;-62
2023/04/25 01:40:24;;;;;;;29.52;13.50;;;;;;;22.21;54.75;98727.47;4813451;29;20123;-62
2023/04/25 01:42:54;;;;;;;31.05;12.50;;;;;;;22.27;54.54;98720.97;4835354;29;20460;-61
2023/04/25 01:45:24;;;;;;;31.60;12.68;;;;;;;22.32;54.76;98715.59;4811426;29;20570;-61
2023/04/25 01:47:54;;;;;;;30.55;12.88;;;;;;;22.40;54.85;98717.75;4813957;29;20061;-62
2023/04/25 01:50:23;;;;;;;42.22;13.38;;;;;;;22.45;53.98;98726.94;4819053;29;20042;-62
2023/04/25 01:52:53;;;;;;;40.33;14.30;;;;;;;22.50;54.45;98729.63;4832029;29;20091;-63
2023/04/25 01:55:23;;;;;;;35.15;12.75;;;;;;;22.59;54.28;98731.53;4818937;29;20141;-61
2023/04/25 01:58:09;;;;;;;36.03;12.85;;;;;;;22.66;53.98;98728.59;4815520;29;20050;-60
2023/04/25 02:01:04;;;;;;;29.55;13.07;;;;;;;22.73;53.36;98731.84;4834212;29;20652;-61
2023/04/25 02:03:41;;;;;;;30.58;13.20;;;;;;;22.81;53.46;98732.09;4818951;29;20486;-64
2023/04/25 02:06:24;;;;;;;52.40;15.32;;;;;;;22.87;53.46;98721.31;4816797;29;20137;-61
2023/04/25 02:08:56;;;;;;;40.13;14.03;;;;;;;23.04;53.27;98730.75;4834017;29;20614;-63
2023/04/25 02:11:26;;;;;;;44.05;14.98;;;;;;;23.12;52.82;98738.28;4833226;29;20061;-62
2023/04/25 02:14:25;;;;;;;30.80;13.95;;;;;;;23.30;52.38;98742.31;4769299;29;20052;-61
2023/04/25 02:17:01;;;;;;;37.92;16.23;;;;;;;23.62;51.75;98745.50;4819132;29;20188;-63
2023/04/25 02:19:32;;;;;;;41.95;14.48;;;;;;;24.14;50.09;98744.16;4818490;29;20061;-66
2023/04/25 02:22:01;;;;;;;36.85;14.35;;;;;;;24.76;49.21;98743.50;4818806;29;20046;-62
2023/04/25 02:24:31;;;;;;;39.78;14.77;;;;;;;25.09;47.63;98751.91;4819172;29;20050;-62
2023/04/25 02:27:01;;;;;;;32.13;13.40;;;;;;;25.33;47.67;98744.63;4833950;29;20495;-63
2023/04/25 02:29:30;;;;;;;43.72;14.52;;;;;;;25.28;46.21;98741.94;4818638;29;20134;-62
2023/04/25 02:32:00;;;;;;;30.92;14.48;;;;;;;25.92;45.67;98753.19;4818974;29;20146;-61
2023/04/25 02:34:29;;;;;;;31.00;14.90;;;;;;;26.30;45.21;98761.38;4818685;29;20064;-63
2023/04/25 02:37:11;;;;;;;38.97;14.57;;;;;;;26.81;43.66;98764.16;4833847;29;20046;-61
2023/04/25 02:40:38;;;;;;;27.10;13.70;;;;;;;27.16;43.03;98758.13;4827789;29;20056;-60
2023/04/25 02:44:05;;;;;;;31.77;13.90;;;;;;;26.88;43.43;98753.72;4834103;29;20057;-61
2023/04/25 02:46:44;;;;;;;35.53;15.93;;;;;;;26.65;43.38;98755.41;4832229;29;20102;-63
2023/04/25 02:49:17;;;;;;;36.50;15.13;;;;;;;26.62;44.36;98763.34;4818525;29;20053;-62
2023/04/25 02:51:46;;;;;;;33.72;16.08;;;;;;;26.87;44.49;98762.16;4818257;29;20042;-60
2023/04/25 02:54:17;;;;;;;40.75;15.00;;;;;;;26.65;44.86;98769.00;4818081;29;20103;-64
2023/04/25 02:56:48;;;;;;;35.38;14.88;;;;;;;26.29;45.69;98765.19;4818890;29;20085;-65
2023/04/25 02:59:24;;;;;;;37.05;14.98;;;;;;;25.71;46.59;98768.06;4814434;29;20058;-62
2023/04/25 03:01:53;;;;;;;44.38;15.20;;;;;;;25.32;47.51;98770.09;4812702;29;20042;-62
2023/04/25 03:04:24;;;;;;;31.42;14.88;;;;;;;25.22;47.69;98767.50;4799444;29;20133;-62
2023/04/25 03:06:54;;;;;;;40.72;15.90;;;;;;;25.13;48.54;98774.66;4806446;29;20061;-62
2023/04/25 03:09:23;;;;;;;42.67;16.02;;;;;;;25.08;48.95;98767.38;4832227;29;20057;-62
2023/04/25 03:11:53;;;;;;;34.72;15.93;;;;;;;24.93;49.63;98773.72;4811401;29;20148;-62
2023/04/25 03:14:23;;;;;;;40.63;16.95;;;;;;;24.81;50.11;98773.25;4816224;29;20129;-61
2023/04/25 03:16:53;;;;;;;44.88;15.88;;;;;;;24.80;50.15;98777.06;4817654;29;20049;-61
2023/04/25 03:19:22;;;;;;;54.38;20.65;;;;;;;24.86;49.10;98773.25;4817612;29;20488;-63
2023/04/25 03:21:53;;;;;;;55.50;28.08;;;;;;;24.90;50.59;98779.72;4817281;29;20114;-64
2023/04/25 03:24:23;;;;;;;62.03;31.92;;;;;;;24.64;51.28;98772.84;4810194;29;20062;-60
2023/04/25 03:26:52;;;;;;;53.28;26.10;;;;;;;24.83;50.41;98779.19;4817683;29;20862;-61
2023/04/25 03:29:31;;;;;;;36.80;20.23;;;;;;;24.94;49.71;98780.75;4817596;29;20062;-62
2023/04/25 03:32:04;;;;;;;42.72;18.63;;;;;;;25.05;50.39;98776.88;4801941;29;20046;-63
2023/04/25 03:34:33;;;;;;;37.83;16.92;;;;;;;25.09;50.51;98776.31;4800092;29;20058;-64
2023/04/25 03:37:02;;;;;;;38.20;16.20;;;;;;;25.10;49.94;98773.31;4801579;29;20113;-64
2023/04/25 03:39:37;;;;;;;34.08;16.13;;;;;;;25.26;50.26;98772.09;4818369;29;20706;-61
2023/04/25 03:42:07;;;;;;;44.30;15.82;;;;;;;25.37;49.54;98780.91;4804201;29;20045;-64
2023/04/25 03:44:37;;;;;;;40.17;15.15;;;;;;;25.42;49.57;98787.09;4817432;29;20681;-63
2023/04/25 03:47:06;;;;;;;34.95;17.00;;;;;;;25.54;49.36;98780.47;4817195;29;20049;-64
2023/04/25 03:49:36;;;;;;;40.95;15.05;;;;;;;25.42;49.75;98789.81;4836190;29;20066;-63
2023/04/25 03:52:07;;;;;;;47.85;16.88;;;;;;;25.53;49.36;98781.56;4820922;29;20153;-62
2023/04/25 03:54:39;;;;;;;37.50;16.63;;;;;;;25.66;49.59;98792.56;4821638;29;20054;-65
2023/04/25 03:57:12;;;;;;;37.00;16.13;;;;;;;25.76;48.58;98787.00;4832109;29;20081;-64
2023/04/25 03:59:42;;;;;;;36.95;16.13;;;;;;;25.73;48.61;98787.59;4807331;29;20065;-65
2023/04/25 04:02:16;;;;;;;41.40;16.10;;;;;;;25.83;48.88;98787.50;4819112;29;20050;-62
2023/04/25 04:04:47;;;;;;;32.42;15.27;;;;;;;25.85;48.80;98789.91;4821146;29;20604;-65
2023/04/25 04:07:16;;;;;;;46.38;17.52;;;;;;;25.99;47.71;98790.00;4825613;29;20050;-62
2023/04/25 04:09:50;;;;;;;37.78;15.70;;;;;;;26.18;47.97;98791.66;4821373;29;20058;-66
2023/04/25 04:12:25;;;;;;;39.72;14.48;;;;;;;26.36;47.04;98803.69;4818389;29;20057;-62
2023/04/25 04:14:54;;;;;;;47.92;15.35;;;;;;;26.38;47.24;98800.69;4821293;29;20046;-62
2023/04/25 04:17:25;;;;;;;29.67;14.43;;;;;;;26.53;46.53;98789.56;4820712;29;20087;-62
2023/04/25 04:19:54;;;;;;;82.03;17.08;;;;;;;26.69;47.39;98796.38;4821231;29;20067;-63
2023/04/25 04:22:24;;;;;;;31.92;15.65;;;;;;;26.86;47.74;98801.34;4819876;29;20070;-64
2023/04/25 04:24:58;;;;;;;41.20;16.42;;;;;;;26.84;46.57;98804.31;4821237;29;20081;-64
2023/04/25 04:27:47;;;;;;;34.33;15.20;;;;;;;27.10;45.95;98810.16;4837025;29;20463;-63
2023/04/25 04:30:29;;;;;;;38.78;15.02;;;;;;;27.22;46.83;98802.34;4826637;29;20065;-67
2023/04/25 04:33:02;;;;;;;27.73;14.30;;;;;;;27.44;45.76;98810.66;4820546;29;20049;-64
2023/04/25 04:35:31;;;;;;;30.60;13.88;;;;;;;27.46;44.88;98816.63;4820969;29;20070;-65
2023/04/25 04:38:02;;;;;;;35.42;13.60;;;;;;;27.66;44.23;98807.31;4819924;29;20054;-65
2023/04/25 04:40:34;;;;;;;39.85;13.75;;;;;;;27.77;44.85;98808.72;4820248;29;20082;-66
2023/04/25 04:43:22;;;;;;;35.38;13.55;;;;;;;27.99;44.92;98810.72;4820255;29;20049;-65
2023/04/25 04:46:10;;;;;;;25.58;13.98;;;;;;;28.19;38.57;98815.00;4836334;29;20068;-65
2023/04/25 04:49:13;;;;;;;33.83;12.48;;;;;;;28.42;42.13;98822.09;4787332;29;20161;-65
2023/04/25 04:52:01;;;;;;;41.22;12.55;;;;;;;28.49;42.10;98809.69;4820815;29;20066;-65
2023/04/25 04:54:50;;;;;;;42.45;11.88;;;;;;;28.63;41.31;98820.56;4823994;29;20045;-62
2023/04/25 04:57:35;;;;;;;30.98;12.02;;;;;;;28.96;39.42;98813.78;4820510;29;20052;-64
2023/04/25 05:00:31;;;;;;;27.27;11.30;;;;;;;29.50;37.23;98814.63;4812681;29;20054;-63
2023/04/25 05:03:37;;;;;;;32.40;13.57;;;;;;;29.95;39.58;98823.53;4758602;30;20066;-63
2023/04/25 05:06:29;;;;;;;25.60;11.48;;;;;;;29.71;39.37;98828.53;4783433;29;20106;-61
2023/04/25 05:09:16;;;;;;;26.83;12.18;;;;;;;29.86;39.66;98819.94;4839159;29;20065;-62
2023/04/25 05:12:24;;;;;;;37.72;12.30;;;;;;;29.73;40.43;98818.13;4797052;29;20058;-61
2023/04/25 05:15:07;;;;;;;34.15;11.98;;;;;;;29.65;40.98;98818.88;4777236;29;20457;-61
2023/04/25 05:17:42;;;;;;;31.63;11.82;;;;;;;29.94;38.58;98826.56;4814751;29;20057;-63
2023/04/25 05:20:23;;;;;;;33.85;11.07;;;;;;;30.08;39.76;98828.06;4803801;29;20689;-61
2023/04/25 05:23:16;;;;;;;35.13;12.30;;;;;;;30.05;40.00;98823.22;4833723;29;20054;-61
2023/04/25 05:26:20;;;;;;;34.25;13.50;;;;;;;30.08;40.61;98821.78;4782345;29;20072;-60
2023/04/25 05:29:13;;;;;;;45.15;12.55;;;;;;;30.10;39.19;98822.28;4824355;29;20077;-62
2023/04/25 05:32:00;;;;;;;31.73;12.50;;;;;;;30.23;39.68;98816.69;4818396;29;20579;-66
2023/04/25 05:34:30;;;;;;;27.38;12.10;;;;;;;29.82;39.69;98825.22;4812949;29;20111;-63
2023/04/25 05:37:02;;;;;;;26.55;11.48;;;;;;;30.08;39.97;98819.06;4801020;29;20046;-61
2023/04/25 05:39:35;;;;;;;27.90;12.07;;;;;;;30.09;39.36;98816.03;4800553;29;20764;-62
2023/04/25 05:42:14;;;;;;;23.40;10.88;;;;;;;30.20;38.11;98819.25;4801883;29;20137;-62
2023/04/25 05:45:04;;;;;;;30.73;11.60;;;;;;;30.25;38.97;98814.44;4818879;29;20098;-68
2023/04/25 05:47:54;;;;;;;23.98;11.13;;;;;;;30.47;38.69;98812.72;4830189;29;20054;-62
2023/04/25 05:50:39;;;;;;;36.50;11.73;;;;;;;30.06;39.57;98813.91;4828669;29;20084;-67
2023/04/25 05:53:39;;;;;;;30.25;10.25;;;;;;;30.40;38.28;98813.19;4810324;29;20163;-69
2023/04/25 05:56:08;;;;;;;25.05;10.55;;;;;;;30.62;37.76;98818.56;4824838;29;20427;-62
2023/04/25 05:58:38;;;;;;;26.85;10.65;;;;;;;30.71;39.31;98807.63;4819013;29;20655;-61
2023/04/25 06:01:09;;;;;;;33.92;9.90;;;;;;;30.43;38.25;98809.81;4802716;29;20058;-62
2023/04/25 06:03:39;;;;;;;21.17;10.57;;;;;;;30.49;37.36;98818.69;4817734;29;20714;-63
2023/04/25 06:06:10;;;;;;;26.15;10.70;;;;;;;30.10;38.33;98811.34;4817850;29;20058;-63
2023/04/25 06:08:39;;;;;;;20.70;9.32;;;;;;;30.08;38.52;98808.94;4818094;29;20064;-71
2023/04/25 06:11:12;;;;;;;24.33;9.53;;;;;;;30.21;38.12;98809.94;4814190;29;20056;-67
2023/04/25 06:13:41;;;;;;;26.08;9.15;;;;;;;29.98;38.47;98805.69;4810656;29;20058;-69
2023/04/25 06:16:12;;;;;;;21.33;9.25;;;;;;;30.13;38.08;98797.06;4794579;29;20054;-64
2023/04/25 06:18:42;;;;;;;30.00;8.98;;;;;;;29.94;37.86;98801.97;4831550;29;20046;-64
2023/04/25 06:21:11;;;;;;;27.13;9.45;;;;;;;30.00;38.79;98798.81;4820251;29;20096;-63
2023/04/25 06:23:40;;;;;;;28.75;9.85;;;;;;;29.69;40.40;98795.28;4812311;29;20069;-62
2023/04/25 06:26:13;;;;;;;19.25;10.20;;;;;;;30.05;38.96;98790.44;4815221;29;20088;-61
2023/04/25 06:28:45;;;;;;;14.98;8.13;;;;;;;30.07;37.91;98799.13;4807711;29;20065;-62
2023/04/25 06:31:15;;;;;;;20.63;8.32;;;;;;;30.15;37.97;98803.81;4825948;29;20057;-63
2023/04/25 06:33:48;;;;;;;25.65;8.63;;;;;;;30.26;37.30;98805.13;4829712;29;20065;-67
2023/04/25 06:36:20;;;;;;;18.30;7.43;;;;;;;30.40;38.19;98798.72;4813570;29;20062;-65
2023/04/25 06:38:55;;;;;;;23.23;8.27;;;;;;;30.44;38.38;98802.41;4824577;29;20053;-62
2023/04/25 06:41:24;;;;;;;17.05;7.68;;;;;;;30.43;38.62;98796.16;4812104;29;20130;-67
2023/04/25 06:43:58;;;;;;;21.52;9.10;;;;;;;30.44;38.23;98791.47;4816105;29;20058;-64
2023/04/25 06:46:32;;;;;;;21.88;8.27;;;;;;;30.51;37.17;98789.91;4816165;29;20057;-69
2023/04/25 06:49:02;;;;;;;26.63;8.38;;;;;;;30.31;37.49;98788.59;4816758;29;20054;-73
2023/04/25 06:51:31;;;;;;;28.08;9.07;;;;;;;30.07;37.86;98787.41;4799809;29;20061;-60
2023/04/25 06:54:00;;;;;;;19.58;7.80;;;;;;;30.31;36.78;98794.06;4829852;29;20065;-62
2023/04/25 06:56:37;;;;;;;21.95;7.55;;;;;;;30.53;36.46;98781.38;4820930;29;20136;-65
2023/04/25 06:59:12;;;;;;;17.20;7.78;;;;;;;30.44;36.48;98775.91;4813500;29;20144;-67
2023/04/25 07:01:43;;;;;;;19.52;6.93;;;;;;;30.19;36.46;98782.09;4813636;29;20061;-66
2023/04/25 07:04:19;;;;;;;19.35;7.18;;;;;;;30.22;36.69;98784.22;4815435;29;20482;-66
2023/04/25 07:06:53;;;;;;;18.13;6.32;;;;;;;30.42;34.76;98791.00;4827749;29;20056;-67
2023/04/25 07:09:36;;;;;;;20.23;7.13;;;;;;;30.61;33.27;98777.84;4811778;29;20639;-64
2023/04/25 07:12:07;;;;;;;21.98;6.30;;;;;;;30.68;33.15;98784.44;4826266;29;20390;-64
2023/04/25 07:14:36;;;;;;;14.25;6.43;;;;;;;31.10;32.74;98774.63;4817406;29;20054;-67
2023/04/25 07:17:06;;;;;;;20.13;6.35;;;;;;;31.31;32.98;98771.16;4817510;29;20077;-65
2023/04/25 07:19:37;;;;;;;19.88;6.10;;;;;;;31.35;33.97;98763.91;4832163;29;20056;-66
2023/04/25 07:22:08;;;;;;;13.27;5.72;;;;;;;31.22;33.86;98768.47;4817464;29;20462;-64
2023/04/25 07:24:41;;;;;;;19.10;6.13;;;;;;;31.25;26.72;98758.81;4816447;29;20061;-64
2023/04/25 07:27:13;;;;;;;13.30;5.72;;;;;;;31.40;30.60;98761.81;4818022;29;20045;-64
2023/04/25 07:30:03;;;;;;;15.60;6.00;;;;;;;31.64;29.58;98764.00;4817225;29;20367;-69
2023/04/25 07:32:33;;;;;;;21.83;5.65;;;;;;;32.02;27.09;98762.00;4814750;29;20164;-71
2023/04/25 07:35:03;;;;;;;24.23;6.22;;;;;;;32.12;27.51;98751.84;4814870;29;20049;-69
2023/04/25 07:37:32;;;;;;;21.85;5.90;;;;;;;31.99;31.44;98757.22;4817028;29;20970;-66
2023/04/25 07:40:16;;;;;;;15.25;5.95;;;;;;;31.99;29.62;98751.72;4813900;29;20042;-67
2023/04/25 07:42:50;;;;;;;25.40;6.05;;;;;;;31.98;29.43;98755.59;4811701;29;20145;-68
2023/04/25 07:45:27;;;;;;;14.57;5.85;;;;;;;32.03;26.16;98744.44;4824617;29;20050;-67
2023/04/25 07:47:56;;;;;;;20.20;5.47;;;;;;;31.96;30.74;98744.16;4807008;29;20050;-69
2023/04/25 07:50:28;;;;;;;16.88;5.38;;;;;;;31.72;32.17;98727.56;4816617;29;20056;-69
2023/04/25 07:52:58;;;;;;;14.18;5.25;;;;;;;31.53;27.74;98738.06;4824148;29;20093;-64
2023/04/25 07:55:41;;;;;;;17.50;5.25;;;;;;;31.21;31.49;98725.78;4824957;29;20054;-61
2023/04/25 07:58:21;;;;;;;11.27;5.15;;;;;;;31.53;26.77;98730.66;4826230;29;20086;-69
2023/04/25 08:00:55;;;;;;;11.05;5.65;;;;;;;31.97;26.53;98731.25;4830532;29;20053;-64
2023/04/25 08:03:41;;;;;;;19.50;5.35;;;;;;;31.96;27.91;98715.94;4809673;29;20144;-64
2023/04/25 08:06:20;;;;;;;13.35;5.28;;;;;;;31.96;30.79;98719.50;4811066;29;20050;-63
2023/04/25 08:09:01;;;;;;;9.88;5.18;;;;;;;31.89;29.24;98710.19;4830075;29;20412;-64
2023/04/25 08:11:37;;;;;;;15.02;5.00;;;;;;;32.15;28.18;98708.13;4817633;29;20596;-65
2023/04/25 08:14:09;;;;;;;17.98;5.88;;;;;;;32.13;26.74;98715.06;4791303;29;20624;-64
2023/04/25 08:16:40;;;;;;;11.80;5.10;;;;;;;32.03;25.94;98706.09;4825900;29;20050;-63
2023/04/25 08:19:10;;;;;;;14.85;4.60;;;;;;;31.95;29.85;98706.13;4805277;29;20050;-64
2023/04/25 08:21:40;;;;;;;13.57;4.85;;;;;;;32.05;24.06;98705.72;4805434;29;20066;-66
2023/04/25 08:24:14;;;;;;;11.60;4.57;;;;;;;32.12;27.57;98694.28;4807663;29;20054;-66
2023/04/25 08:26:44;;;;;;;17.90;5.20;;;;;;;31.99;27.79;98690.63;4812568;29;20217;-65
2023/04/25 08:29:16;;;;;;;13.20;4.88;;;;;;;31.99;27.17;98691.44;4812021;29;20057;-66
2023/04/25 08:31:46;;;;;;;18.40;5.75;;;;;;;32.10;27.26;98686.38;4810979;29;20054;-68
2023/04/25 08:34:16;;;;;;;11.90;4.82;;;;;;;31.85;26.88;98676.38;4813709;29;20049;-64
2023/04/25 08:36:48;;;;;;;11.85;4.75;;;;;;;31.98;26.58;98675.31;4812226;29;20526;-64
2023/04/25 08:39:23;;;;;;;16.50;5.38;;;;;;;31.72;29.07;98670.03;4828989;29;20122;-68
2023/04/25 08:42:21;;;;;;;10.18;4.30;;;;;;;31.87;23.89;98663.13;4811676;29;20050;-72
2023/04/25 08:44:53;;;;;;;10.10;5.18;;;;;;;31.91;24.33;98656.66;4814150;29;20693;-67
2023/04/25 08:47:29;;;;;;;21.13;5.40;;;;;;;31.63;29.40;98650.09;4811066;29;20146;-70
2023/04/25 08:50:03;;;;;;;15.13;4.97;;;;;;;31.64;25.58;98657.19;4827745;29;20046;-68
2023/04/25 08:52:45;;;;;;;15.02;4.95;;;;;;;31.87;23.17;98652.19;4815482;29;20126;-65
2023/04/25 08:55:16;;;;;;;11.18;5.30;;;;;;;31.72;29.09;98644.56;4799128;29;20059;-67
2023/04/25 08:57:47;;;;;;;12.70;4.95;;;;;;;31.48;30.04;98639.69;4815617;29;20517;-65
2023/04/25 09:00:18;;;;;;;7.78;4.60;;;;;;;31.13;32.01;98639.88;4816298;29;20142;-67
2023/04/25 09:02:48;;;;;;;8.80;4.38;;;;;;;30.91;32.38;98631.06;4830610;29;20769;-65
2023/04/25 09:05:19;;;;;;;21.38;5.25;;;;;;;30.67;32.09;98626.19;4813762;29;20050;-64
2023/04/25 09:07:52;;;;;;;8.27;4.60;;;;;;;30.60;32.67;98617.66;4814211;29;20119;-67
2023/04/25 09:10:22;;;;;;;16.58;5.20;;;;;;;30.42;33.65;98614.13;4811359;29;20487;-67
2023/04/25 09:13:08;;;;;;;9.68;4.53;;;;;;;30.40;29.35;98604.66;4814297;29;20415;-64
2023/04/25 09:15:58;;;;;;;16.05;4.63;;;;;;;30.77;27.87;98599.25;4827006;29;20062;-63
2023/04/25 09:18:49;;;;;;;13.93;4.35;;;;;;;31.03;26.88;98596.44;4803758;29;20426;-62
2023/04/25 09:21:23;;;;;;;16.08;4.88;;;;;;;31.01;24.74;98593.25;4804437;29;20166;-62
2023/04/25 09:23:54;;;;;;;13.52;5.05;;;;;;;31.17;24.19;98596.22;4813199;29;20428;-67
2023/04/25 09:26:25;;;;;;;12.93;4.93;;;;;;;31.59;22.69;98587.00;4799692;29;20065;-68
2023/04/25 09:29:08;;;;;;;10.75;4.45;;;;;;;31.36;28.98;98585.66;4781795;29;20066;-70
2023/04/25 09:31:41;;;;;;;10.90;4.22;;;;;;;31.18;28.61;98584.16;4796535;29;20051;-65
2023/04/25 09:34:15;;;;;;;9.63;4.20;;;;;;;31.09;27.58;98588.88;4806509;29;20754;-69
2023/04/25 09:36:55;;;;;;;9.27;4.32;;;;;;;30.88;30.82;98579.75;4799096;29;20149;-70
2023/04/25 09:40:05;;;;;;;17.33;5.50;;;;;;;30.81;31.23;98573.97;4800577;29;20058;-68
2023/04/25 09:42:48;;;;;;;16.27;4.53;;;;;;;30.57;31.33;98572.63;4800075;29;20059;-67
2023/04/25 09:48:25;;;;;;;6.43;4.20;;;;;;;30.09;32.53;98564.69;4148585;29;9999897;-69
2023/04/25 09:51:16;;;;;;;12.20;4.65;;;;;;;30.05;32.08;98568.38;4803359;29;20547;-61
2023/04/25 09:53:50;;;;;;;16.05;4.90;;;;;;;29.97;32.23;98559.06;4816373;29;21707;-65
2023/04/25 09:56:42;;;;;;;17.05;4.60;;;;;;;29.91;32.65;98552.16;4808719;29;20069;-67
2023/04/25 09:59:12;;;;;;;14.45;4.45;;;;;;;29.79;32.58;98551.97;4812360;29;20051;-69
2023/04/25 10:01:44;;;;;;;10.02;4.72;;;;;;;29.69;33.40;98544.09;4812059;29;20064;-69
2023/04/25 10:04:32;;;;;;;13.40;4.30;;;;;;;29.83;32.47;98525.59;4827519;29;20148;-69
2023/04/25 10:07:09;;;;;;;9.10;4.45;;;;;;;30.00;33.01;98528.38;4823535;29;20046;-68
2023/04/25 10:09:40;;;;;;;15.50;4.55;;;;;;;30.03;33.06;98522.25;4809954;29;20058;-64
2023/04/25 10:12:11;;;;;;;19.15;4.85;;;;;;;30.45;24.74;98511.59;4811131;29;20769;-64
2023/04/25 10:14:40;;;;;;;12.80;5.00;;;;;;;30.50;30.33;98512.19;4806576;29;20099;-64
2023/04/25 10:17:11;;;;;;;18.95;4.93;;;;;;;30.56;31.00;98510.06;4803116;29;20063;-66
2023/04/25 10:19:42;;;;;;;13.35;5.03;;;;;;;30.52;32.95;98507.19;4805314;29;20055;-66
2023/04/25 10:22:23;;;;;;;12.18;4.95;;;;;;;30.50;30.01;98503.19;4807548;29;20753;-70
2023/04/25 10:24:53;;;;;;;12.98;5.18;;;;;;;30.73;29.20;98505.34;4810358;29;20088;-68
2023/04/25 10:27:24;;;;;;;12.82;4.90;;;;;;;30.95;24.67;98501.50;4829045;29;20069;-70
2023/04/25 10:30:12;;;;;;;11.73;4.60;;;;;;;31.01;28.17;98499.44;4814898;29;20054;-71
2023/04/25 10:32:49;;;;;;;13.95;4.97;;;;;;;31.14;29.09;98498.38;4815688;29;20768;-67
2023/04/25 10:35:26;;;;;;;16.77;6.07;;;;;;;31.14;26.00;98496.44;4804537;29;20042;-69
2023/04/25 10:38:00;;;;;;;16.15;4.95;;;;;;;31.17;29.17;98489.50;4808210;29;20053;-69
2023/04/25 10:40:32;;;;;;;11.40;4.70;;;;;;;31.00;28.83;98487.69;4805483;29;20058;-68
2023/04/25 10:43:32;;;;;;;15.05;4.85;;;;;;;31.17;24.30;98489.50;4806402;29;20805;-64
2023/04/25 10:46:12;;;;;;;19.38;5.72;;;;;;;31.23;23.43;98479.16;4774629;29;20138;-71
2023/04/25 10:48:48;;;;;;;13.13;5.40;;;;;;;31.28;25.45;98476.22;4802540;29;20132;-62
2023/04/25 10:51:31;;;;;;;13.82;4.90;;;;;;;31.12;30.01;98478.75;4799813;29;20157;-68
2023/04/25 10:54:25;;;;;;;16.48;4.78;;;;;;;30.89;30.30;98480.16;4802802;29;20054;-66
2023/04/25 10:56:58;;;;;;;7.72;4.47;;;;;;;30.78;30.55;98479.72;4801481;29;20146;-64
2023/04/25 10:59:29;;;;;;;10.60;4.75;;;;;;;30.66;30.73;98471.44;4803108;29;20058;-70
2023/04/25 11:01:59;;;;;;;10.55;4.55;;;;;;;30.51;31.85;98475.53;4818749;29;20674;-65
2023/04/25 11:04:34;;;;;;;16.25;4.60;;;;;;;30.42;32.10;98473.91;4821678;29;20086;-70
2023/04/25 11:07:26;;;;;;;21.40;5.28;;;;;;;30.28;32.66;98476.88;4824762;29;20137;-67
2023/04/25 11:09:58;;;;;;;15.68;5.07;;;;;;;30.18;29.11;98475.28;4812637;29;20049;-68
2023/04/25 11:12:27;;;;;;;12.80;4.45;;;;;;;30.30;26.67;98471.88;4825476;29;20142;-70
2023/04/25 11:15:05;;;;;;;12.15;5.20;;;;;;;30.46;27.37;98462.03;4825514;29;20121;-71
2023/04/25 11:17:35;;;;;;;13.82;4.60;;;;;;;30.62;26.84;98465.03;4823636;29;20057;-71
2023/04/25 11:20:11;;;;;;;10.82;5.18;;;;;;;30.74;24.91;98459.66;4831461;29;20053;-69
2023/04/25 11:22:41;;;;;;;12.57;5.20;;;;;;;30.86;23.09;98459.72;4832640;29;20068;-70
2023/04/25 11:25:13;;;;;;;16.63;5.20;;;;;;;30.93;24.04;98443.63;4798424;29;20554;-71
2023/04/25 11:27:54;;;;;;;10.98;4.65;;;;;;;31.01;25.50;98444.72;4812728;29;20759;-61
2023/04/25 11:30:25;;;;;;;29.75;5.68;;;;;;;31.12;24.25;98448.66;4799398;29;20061;-66
2023/04/25 11:32:54;;;;;;;15.45;5.25;;;;;;;31.16;23.82;98439.44;4831653;29;20050;-66
2023/04/25 11:35:55;;;;;;;10.30;5.00;;;;;;;31.16;24.60;98444.09;4827566;29;20050;-67
2023/04/25 11:38:28;;;;;;;10.63;4.80;;;;;;;31.19;23.23;98441.53;4831936;29;20563;-67
2023/04/25 11:40:58;;;;;;;;;;;;;;;31.18;27.28;98436.38;4829979;29;20050;-65
2023/04/25 11:43:32;;;;;;;18.98;5.35;;;;;;;30.94;30.56;98438.91;4811906;29;19939;-66
2023/04/25 11:46:08;;;;;;;13.80;4.70;;;;;;;30.77;25.99;98424.22;4808951;29;20134;-63
2023/04/25 11:48:39;;;;;;;11.93;4.93;;;;;;;30.83;23.48;98422.13;4832060;29;20061;-69
2023/04/25 11:51:10;;;;;;;15.02;4.78;;;;;;;30.96;22.46;98431.19;4813807;29;20058;-65
2023/04/25 11:53:44;;;;;;;12.35;5.28;;;;;;;30.98;22.67;98418.00;4821861;29;20057;-63
2023/04/25 11:56:14;;;;;;;17.02;5.07;;;;;;;31.12;25.79;98424.00;4813614;29;20057;-64
2023/04/25 11:59:04;;;;;;;11.90;4.95;;;;;;;30.81;28.80;98420.81;4827284;29;20471;-65
2023/04/25 12:01:37;;;;;;;14.70;5.15;;;;;;;30.49;29.90;98428.59;4825201;29;20492;-63